sensor_id;sensor_type;location;lat;lon;timestamp;temperature;humidity
13326;DHT22;6732;51.044;3.746;2022-12-07T00:01:20;7.00;99.90
13326;DHT22;6732;51.044;3.746;2022-12-07T00:03:48;7.00;99.90
13326;DHT22;6732;51.044;3.746;2022-12-07T00:06:16;7.00;99.90
13326;DHT22;6732;51.044;3.746;2022-12-07T00:08:42;7.00;99.90
13326;DHT22;6732;51.044;3.746;2022-12-07T00:11:14;7.00;99.90
13326;DHT22;6732;51.044;3.746;2022-12-07T00:13:40;7.00;99.90
13326;DHT22;6732;51.044;3.746;2022-12-07T00:16:09;7.00;99.90
13326;DHT22;6732;51.044;3.746;2022-12-07T00:18:35;7.00;99.90
13326;DHT22;6732;51.044;3.746;2022-12-07T00:21:03;7.00;99.90
13326;DHT22;6732;51.044;3.746;2022-12-07T00:23:29;7.00;99.90
13326;DHT22;6732;51.044;3.746;2022-12-07T00:25:55;7.00;99.90
13326;DHT22;6732;51.044;3.746;2022-12-07T00:28:21;7.00;99.90
13326;DHT22;6732;51.044;3.746;2022-12-07T00:30:47;7.00;99.90
13326;DHT22;6732;51.044;3.746;2022-12-07T00:33:13;7.00;99.90
13326;DHT22;6732;51.044;3.746;2022-12-07T00:35:39;7.00;99.90
13326;DHT22;6732;51.044;3.746;2022-12-07T00:38:05;7.00;99.90
13326;DHT22;6732;51.044;3.746;2022-12-07T00:40:31;6.90;99.90
13326;DHT22;6732;51.044;3.746;2022-12-07T00:42:56;6.90;99.90
13326;DHT22;6732;51.044;3.746;2022-12-07T00:45:22;6.90;99.90
13326;DHT22;6732;51.044;3.746;2022-12-07T00:47:48;7.00;99.90
13326;DHT22;6732;51.044;3.746;2022-12-07T00:50:14;6.90;99.90
13326;DHT22;6732;51.044;3.746;2022-12-07T00:52:40;6.90;99.90
13326;DHT22;6732;51.044;3.746;2022-12-07T00:55:06;6.90;99.90
13326;DHT22;6732;51.044;3.746;2022-12-07T00:57:32;6.90;99.90
13326;DHT22;6732;51.044;3.746;2022-12-07T00:59:58;6.90;99.90
13326;DHT22;6732;51.044;3.746;2022-12-07T01:02:26;6.90;99.90
13326;DHT22;6732;51.044;3.746;2022-12-07T01:04:51;6.90;99.90
13326;DHT22;6732;51.044;3.746;2022-12-07T01:07:17;6.90;99.90
13326;DHT22;6732;51.044;3.746;2022-12-07T01:09:43;6.90;99.90
13326;DHT22;6732;51.044;3.746;2022-12-07T01:12:09;6.90;99.90
13326;DHT22;6732;51.044;3.746;2022-12-07T01:14:35;6.90;99.90
13326;DHT22;6732;51.044;3.746;2022-12-07T01:17:01;6.90;99.90
13326;DHT22;6732;51.044;3.746;2022-12-07T01:19:27;6.90;99.90
13326;DHT22;6732;51.044;3.746;2022-12-07T01:21:53;6.90;99.90
13326;DHT22;6732;51.044;3.746;2022-12-07T01:24:19;6.90;99.90
13326;DHT22;6732;51.044;3.746;2022-12-07T01:26:44;6.90;99.90
13326;DHT22;6732;51.044;3.746;2022-12-07T01:29:10;6.90;99.90
13326;DHT22;6732;51.044;3.746;2022-12-07T01:31:36;6.90;99.90
13326;DHT22;6732;51.044;3.746;2022-12-07T01:34:02;6.90;99.90
13326;DHT22;6732;51.044;3.746;2022-12-07T01:36:34;6.80;99.90
13326;DHT22;6732;51.044;3.746;2022-12-07T01:39:02;6.80;99.90
13326;DHT22;6732;51.044;3.746;2022-12-07T01:41:31;6.80;99.90
13326;DHT22;6732;51.044;3.746;2022-12-07T01:44:28;6.80;99.90
13326;DHT22;6732;51.044;3.746;2022-12-07T01:46:58;6.80;99.90
13326;DHT22;6732;51.044;3.746;2022-12-07T01:49:37;6.80;99.90
13326;DHT22;6732;51.044;3.746;2022-12-07T01:54:42;6.80;99.90
13326;DHT22;6732;51.044;3.746;2022-12-07T01:57:08;6.80;99.90
13326;DHT22;6732;51.044;3.746;2022-12-07T01:59:35;6.80;99.90
13326;DHT22;6732;51.044;3.746;2022-12-07T02:02:05;6.80;99.90
13326;DHT22;6732;51.044;3.746;2022-12-07T02:04:33;6.80;99.90
13326;DHT22;6732;51.044;3.746;2022-12-07T02:07:00;6.80;99.90
13326;DHT22;6732;51.044;3.746;2022-12-07T02:09:28;6.80;99.90
13326;DHT22;6732;51.044;3.746;2022-12-07T02:11:55;6.80;99.90
13326;DHT22;6732;51.044;3.746;2022-12-07T02:14:21;6.80;99.90
13326;DHT22;6732;51.044;3.746;2022-12-07T02:17:07;6.80;99.90
13326;DHT22;6732;51.044;3.746;2022-12-07T02:30:35;6.70;99.90
13326;DHT22;6732;51.044;3.746;2022-12-07T02:33:07;6.70;99.90
13326;DHT22;6732;51.044;3.746;2022-12-07T02:35:44;6.70;99.90
13326;DHT22;6732;51.044;3.746;2022-12-07T02:38:25;6.70;99.90
13326;DHT22;6732;51.044;3.746;2022-12-07T02:40:57;6.70;99.90
13326;DHT22;6732;51.044;3.746;2022-12-07T02:43:34;6.70;99.90
13326;DHT22;6732;51.044;3.746;2022-12-07T02:46:08;6.70;99.90
13326;DHT22;6732;51.044;3.746;2022-12-07T02:48:36;6.70;99.90
13326;DHT22;6732;51.044;3.746;2022-12-07T02:51:03;6.70;99.90
13326;DHT22;6732;51.044;3.746;2022-12-07T02:53:41;6.70;99.90
13326;DHT22;6732;51.044;3.746;2022-12-07T02:59:13;6.70;99.90
13326;DHT22;6732;51.044;3.746;2022-12-07T03:06:56;6.70;99.90
13326;DHT22;6732;51.044;3.746;2022-12-07T03:09:34;6.70;99.90
13326;DHT22;6732;51.044;3.746;2022-12-07T03:12:09;6.70;99.90
13326;DHT22;6732;51.044;3.746;2022-12-07T03:15:10;6.70;99.90
13326;DHT22;6732;51.044;3.746;2022-12-07T03:17:39;6.70;99.90
13326;DHT22;6732;51.044;3.746;2022-12-07T03:20:07;6.70;99.90
13326;DHT22;6732;51.044;3.746;2022-12-07T03:22:38;6.70;99.90
13326;DHT22;6732;51.044;3.746;2022-12-07T03:25:10;6.70;99.90
13326;DHT22;6732;51.044;3.746;2022-12-07T03:30:23;6.70;99.90
13326;DHT22;6732;51.044;3.746;2022-12-07T03:33:03;6.70;99.90
13326;DHT22;6732;51.044;3.746;2022-12-07T03:35:45;6.70;99.90
13326;DHT22;6732;51.044;3.746;2022-12-07T03:38:22;6.70;99.90
13326;DHT22;6732;51.044;3.746;2022-12-07T03:43:32;6.60;99.90
13326;DHT22;6732;51.044;3.746;2022-12-07T03:52:32;6.60;99.90
13326;DHT22;6732;51.044;3.746;2022-12-07T03:55:06;6.60;99.90
13326;DHT22;6732;51.044;3.746;2022-12-07T03:57:34;6.60;99.90
13326;DHT22;6732;51.044;3.746;2022-12-07T04:00:03;6.50;99.90
13326;DHT22;6732;51.044;3.746;2022-12-07T04:02:30;6.50;99.90
13326;DHT22;6732;51.044;3.746;2022-12-07T04:04:57;6.50;99.90
13326;DHT22;6732;51.044;3.746;2022-12-07T04:07:23;6.50;99.90
13326;DHT22;6732;51.044;3.746;2022-12-07T04:09:49;6.50;99.90
13326;DHT22;6732;51.044;3.746;2022-12-07T04:12:15;6.50;99.90
13326;DHT22;6732;51.044;3.746;2022-12-07T04:14:41;6.50;99.90
13326;DHT22;6732;51.044;3.746;2022-12-07T04:17:08;6.50;99.90
13326;DHT22;6732;51.044;3.746;2022-12-07T04:19:34;6.50;99.90
13326;DHT22;6732;51.044;3.746;2022-12-07T04:22:01;6.50;99.90
13326;DHT22;6732;51.044;3.746;2022-12-07T04:24:28;6.50;99.90
13326;DHT22;6732;51.044;3.746;2022-12-07T04:26:54;6.50;99.90
13326;DHT22;6732;51.044;3.746;2022-12-07T04:29:21;6.40;99.90
13326;DHT22;6732;51.044;3.746;2022-12-07T04:31:47;6.40;99.90
13326;DHT22;6732;51.044;3.746;2022-12-07T04:34:14;6.40;99.90
13326;DHT22;6732;51.044;3.746;2022-12-07T04:36:40;6.40;99.90
13326;DHT22;6732;51.044;3.746;2022-12-07T04:39:09;6.40;99.90
13326;DHT22;6732;51.044;3.746;2022-12-07T04:41:39;6.40;99.90
13326;DHT22;6732;51.044;3.746;2022-12-07T04:44:04;6.40;99.90
13326;DHT22;6732;51.044;3.746;2022-12-07T04:46:33;6.40;99.90
13326;DHT22;6732;51.044;3.746;2022-12-07T04:48:59;6.50;99.90
13326;DHT22;6732;51.044;3.746;2022-12-07T04:51:27;6.40;99.90
13326;DHT22;6732;51.044;3.746;2022-12-07T04:53:55;6.40;99.90
13326;DHT22;6732;51.044;3.746;2022-12-07T04:56:22;6.40;99.90
13326;DHT22;6732;51.044;3.746;2022-12-07T04:58:49;6.40;99.90
13326;DHT22;6732;51.044;3.746;2022-12-07T05:01:16;6.40;99.90
13326;DHT22;6732;51.044;3.746;2022-12-07T05:03:42;6.40;99.90
13326;DHT22;6732;51.044;3.746;2022-12-07T05:06:09;6.40;99.90
13326;DHT22;6732;51.044;3.746;2022-12-07T05:08:35;6.40;99.90
13326;DHT22;6732;51.044;3.746;2022-12-07T05:11:02;6.40;99.90
13326;DHT22;6732;51.044;3.746;2022-12-07T05:13:29;6.40;99.90
13326;DHT22;6732;51.044;3.746;2022-12-07T05:15:54;6.40;99.90
13326;DHT22;6732;51.044;3.746;2022-12-07T05:18:20;6.40;99.90
13326;DHT22;6732;51.044;3.746;2022-12-07T05:20:46;6.40;99.90
13326;DHT22;6732;51.044;3.746;2022-12-07T05:23:12;6.40;99.90
13326;DHT22;6732;51.044;3.746;2022-12-07T05:25:38;6.40;99.90
13326;DHT22;6732;51.044;3.746;2022-12-07T05:28:05;6.40;99.90
13326;DHT22;6732;51.044;3.746;2022-12-07T05:30:31;6.40;99.90
13326;DHT22;6732;51.044;3.746;2022-12-07T05:32:57;6.50;99.90
13326;DHT22;6732;51.044;3.746;2022-12-07T05:35:24;6.50;99.90
13326;DHT22;6732;51.044;3.746;2022-12-07T05:37:50;6.50;99.90
13326;DHT22;6732;51.044;3.746;2022-12-07T05:40:16;6.40;99.90
13326;DHT22;6732;51.044;3.746;2022-12-07T05:42:44;6.40;99.90
13326;DHT22;6732;51.044;3.746;2022-12-07T05:45:10;6.50;99.90
13326;DHT22;6732;51.044;3.746;2022-12-07T05:47:37;6.40;99.90
13326;DHT22;6732;51.044;3.746;2022-12-07T05:50:04;6.40;99.90
13326;DHT22;6732;51.044;3.746;2022-12-07T05:52:30;6.40;99.90
13326;DHT22;6732;51.044;3.746;2022-12-07T05:54:56;6.40;99.90
13326;DHT22;6732;51.044;3.746;2022-12-07T05:57:22;6.40;99.90
13326;DHT22;6732;51.044;3.746;2022-12-07T05:59:48;6.40;99.90
13326;DHT22;6732;51.044;3.746;2022-12-07T06:02:15;6.40;99.90
13326;DHT22;6732;51.044;3.746;2022-12-07T06:04:46;6.40;99.90
13326;DHT22;6732;51.044;3.746;2022-12-07T06:07:14;6.30;99.90
13326;DHT22;6732;51.044;3.746;2022-12-07T06:09:40;6.30;99.90
13326;DHT22;6732;51.044;3.746;2022-12-07T06:12:06;6.30;99.90
13326;DHT22;6732;51.044;3.746;2022-12-07T06:14:53;6.30;99.90
13326;DHT22;6732;51.044;3.746;2022-12-07T06:17:19;6.30;99.90
13326;DHT22;6732;51.044;3.746;2022-12-07T06:19:45;6.30;99.90
13326;DHT22;6732;51.044;3.746;2022-12-07T06:22:11;6.30;99.90
13326;DHT22;6732;51.044;3.746;2022-12-07T06:24:38;6.30;99.90
13326;DHT22;6732;51.044;3.746;2022-12-07T06:27:05;6.40;99.90
13326;DHT22;6732;51.044;3.746;2022-12-07T06:29:32;6.40;99.90
13326;DHT22;6732;51.044;3.746;2022-12-07T06:31:58;6.30;99.90
13326;DHT22;6732;51.044;3.746;2022-12-07T06:34:24;6.30;99.90
13326;DHT22;6732;51.044;3.746;2022-12-07T06:36:51;6.30;99.90
13326;DHT22;6732;51.044;3.746;2022-12-07T06:39:20;6.30;99.90
13326;DHT22;6732;51.044;3.746;2022-12-07T06:41:46;6.30;99.90
13326;DHT22;6732;51.044;3.746;2022-12-07T06:44:12;6.30;99.90
13326;DHT22;6732;51.044;3.746;2022-12-07T06:46:38;6.30;99.90
13326;DHT22;6732;51.044;3.746;2022-12-07T06:49:05;6.30;99.90
13326;DHT22;6732;51.044;3.746;2022-12-07T06:51:32;6.30;99.90
13326;DHT22;6732;51.044;3.746;2022-12-07T06:53:58;6.30;99.90
13326;DHT22;6732;51.044;3.746;2022-12-07T06:56:24;6.30;99.90
13326;DHT22;6732;51.044;3.746;2022-12-07T06:58:50;6.30;99.90
13326;DHT22;6732;51.044;3.746;2022-12-07T07:01:17;6.30;99.90
13326;DHT22;6732;51.044;3.746;2022-12-07T07:03:45;6.30;99.90
13326;DHT22;6732;51.044;3.746;2022-12-07T07:06:11;6.30;99.90
13326;DHT22;6732;51.044;3.746;2022-12-07T07:08:38;6.30;99.90
13326;DHT22;6732;51.044;3.746;2022-12-07T07:11:06;6.30;99.90
13326;DHT22;6732;51.044;3.746;2022-12-07T07:13:33;6.30;99.90
13326;DHT22;6732;51.044;3.746;2022-12-07T07:16:00;6.30;99.90
13326;DHT22;6732;51.044;3.746;2022-12-07T07:18:26;6.30;99.90
13326;DHT22;6732;51.044;3.746;2022-12-07T07:20:53;6.30;99.90
13326;DHT22;6732;51.044;3.746;2022-12-07T07:23:20;6.30;99.90
13326;DHT22;6732;51.044;3.746;2022-12-07T07:25:46;6.30;99.90
13326;DHT22;6732;51.044;3.746;2022-12-07T07:28:13;6.30;99.90
13326;DHT22;6732;51.044;3.746;2022-12-07T07:30:39;6.30;99.90
13326;DHT22;6732;51.044;3.746;2022-12-07T07:33:05;6.30;99.90
13326;DHT22;6732;51.044;3.746;2022-12-07T07:35:33;6.30;99.90
13326;DHT22;6732;51.044;3.746;2022-12-07T07:37:59;6.30;99.90
13326;DHT22;6732;51.044;3.746;2022-12-07T07:40:26;6.30;99.90
13326;DHT22;6732;51.044;3.746;2022-12-07T07:42:53;6.30;99.90
13326;DHT22;6732;51.044;3.746;2022-12-07T07:45:20;6.30;99.90
13326;DHT22;6732;51.044;3.746;2022-12-07T07:47:47;6.30;99.90
13326;DHT22;6732;51.044;3.746;2022-12-07T07:50:13;6.30;99.90
13326;DHT22;6732;51.044;3.746;2022-12-07T07:52:39;6.30;99.90
13326;DHT22;6732;51.044;3.746;2022-12-07T07:55:05;6.40;99.90
13326;DHT22;6732;51.044;3.746;2022-12-07T07:57:37;6.30;99.90
13326;DHT22;6732;51.044;3.746;2022-12-07T08:00:06;6.30;99.90
13326;DHT22;6732;51.044;3.746;2022-12-07T08:02:32;6.30;99.90
13326;DHT22;6732;51.044;3.746;2022-12-07T08:04:58;6.30;99.90
13326;DHT22;6732;51.044;3.746;2022-12-07T08:07:24;6.30;99.90
13326;DHT22;6732;51.044;3.746;2022-12-07T08:09:50;6.30;99.90
13326;DHT22;6732;51.044;3.746;2022-12-07T08:12:16;6.30;99.90
13326;DHT22;6732;51.044;3.746;2022-12-07T08:14:42;6.30;99.90
13326;DHT22;6732;51.044;3.746;2022-12-07T08:17:08;6.30;99.90
13326;DHT22;6732;51.044;3.746;2022-12-07T08:19:34;6.30;99.90
13326;DHT22;6732;51.044;3.746;2022-12-07T08:22:00;6.30;99.90
13326;DHT22;6732;51.044;3.746;2022-12-07T08:24:26;6.30;99.90
13326;DHT22;6732;51.044;3.746;2022-12-07T08:26:52;6.30;99.90
13326;DHT22;6732;51.044;3.746;2022-12-07T08:29:18;6.20;99.90
13326;DHT22;6732;51.044;3.746;2022-12-07T08:31:45;6.30;99.90
13326;DHT22;6732;51.044;3.746;2022-12-07T08:34:11;6.30;99.90
13326;DHT22;6732;51.044;3.746;2022-12-07T08:36:37;6.20;99.90
13326;DHT22;6732;51.044;3.746;2022-12-07T08:39:03;6.20;99.90
13326;DHT22;6732;51.044;3.746;2022-12-07T08:41:29;6.30;99.90
13326;DHT22;6732;51.044;3.746;2022-12-07T08:43:55;6.30;99.90
13326;DHT22;6732;51.044;3.746;2022-12-07T08:51:29;6.30;99.90
13326;DHT22;6732;51.044;3.746;2022-12-07T08:53:58;6.30;99.90
13326;DHT22;6732;51.044;3.746;2022-12-07T08:56:25;6.40;99.90
13326;DHT22;6732;51.044;3.746;2022-12-07T08:59:41;6.40;99.90
13326;DHT22;6732;51.044;3.746;2022-12-07T09:02:07;6.40;99.90
13326;DHT22;6732;51.044;3.746;2022-12-07T09:04:33;6.40;99.90
13326;DHT22;6732;51.044;3.746;2022-12-07T09:06:59;6.40;99.90
13326;DHT22;6732;51.044;3.746;2022-12-07T09:09:25;6.40;99.90
13326;DHT22;6732;51.044;3.746;2022-12-07T09:11:51;6.40;99.90
13326;DHT22;6732;51.044;3.746;2022-12-07T09:14:16;6.40;99.90
13326;DHT22;6732;51.044;3.746;2022-12-07T09:16:44;6.40;99.90
13326;DHT22;6732;51.044;3.746;2022-12-07T09:19:10;6.40;99.90
13326;DHT22;6732;51.044;3.746;2022-12-07T09:21:36;6.40;99.90
13326;DHT22;6732;51.044;3.746;2022-12-07T09:24:02;6.40;99.90
13326;DHT22;6732;51.044;3.746;2022-12-07T09:26:28;6.40;99.90
13326;DHT22;6732;51.044;3.746;2022-12-07T09:28:54;6.40;99.90
13326;DHT22;6732;51.044;3.746;2022-12-07T09:31:20;6.40;99.90
13326;DHT22;6732;51.044;3.746;2022-12-07T09:33:45;6.50;99.90
13326;DHT22;6732;51.044;3.746;2022-12-07T09:36:11;6.50;99.90
13326;DHT22;6732;51.044;3.746;2022-12-07T09:38:37;6.50;99.90
13326;DHT22;6732;51.044;3.746;2022-12-07T09:41:05;6.50;99.90
13326;DHT22;6732;51.044;3.746;2022-12-07T09:43:34;6.50;99.90
13326;DHT22;6732;51.044;3.746;2022-12-07T09:46:00;6.60;99.90
13326;DHT22;6732;51.044;3.746;2022-12-07T09:48:32;6.60;99.90
13326;DHT22;6732;51.044;3.746;2022-12-07T09:51:00;6.60;99.90
13326;DHT22;6732;51.044;3.746;2022-12-07T09:53:37;6.60;99.90
13326;DHT22;6732;51.044;3.746;2022-12-07T09:56:04;6.60;99.90
13326;DHT22;6732;51.044;3.746;2022-12-07T09:58:31;6.60;99.90
13326;DHT22;6732;51.044;3.746;2022-12-07T10:03:35;6.70;99.90
13326;DHT22;6732;51.044;3.746;2022-12-07T10:06:04;6.70;99.90
13326;DHT22;6732;51.044;3.746;2022-12-07T10:08:31;6.70;99.90
13326;DHT22;6732;51.044;3.746;2022-12-07T10:10:57;6.70;99.90
13326;DHT22;6732;51.044;3.746;2022-12-07T10:13:41;6.70;99.90
13326;DHT22;6732;51.044;3.746;2022-12-07T10:18:50;6.70;99.90
13326;DHT22;6732;51.044;3.746;2022-12-07T10:21:19;6.70;99.90
13326;DHT22;6732;51.044;3.746;2022-12-07T10:26:52;6.70;99.90
13326;DHT22;6732;51.044;3.746;2022-12-07T10:29:24;6.70;99.90
13326;DHT22;6732;51.044;3.746;2022-12-07T10:32:25;6.70;99.90
13326;DHT22;6732;51.044;3.746;2022-12-07T10:35:19;6.70;99.90
13326;DHT22;6732;51.044;3.746;2022-12-07T10:37:45;6.70;99.90
13326;DHT22;6732;51.044;3.746;2022-12-07T10:40:33;6.70;99.90
13326;DHT22;6732;51.044;3.746;2022-12-07T10:43:05;6.70;99.90
13326;DHT22;6732;51.044;3.746;2022-12-07T10:45:34;6.80;99.90
13326;DHT22;6732;51.044;3.746;2022-12-07T10:48:13;6.80;99.90
13326;DHT22;6732;51.044;3.746;2022-12-07T11:05:27;6.90;99.90
13326;DHT22;6732;51.044;3.746;2022-12-07T11:08:21;6.90;99.90
13326;DHT22;6732;51.044;3.746;2022-12-07T11:11:14;7.00;99.90
13326;DHT22;6732;51.044;3.746;2022-12-07T11:17:05;7.00;99.90
13326;DHT22;6732;51.044;3.746;2022-12-07T11:19:46;7.00;99.90
13326;DHT22;6732;51.044;3.746;2022-12-07T11:27:44;7.00;99.90
13326;DHT22;6732;51.044;3.746;2022-12-07T11:30:22;7.00;99.90
13326;DHT22;6732;51.044;3.746;2022-12-07T11:35:33;7.00;99.90
13326;DHT22;6732;51.044;3.746;2022-12-07T11:38:17;7.00;99.90
13326;DHT22;6732;51.044;3.746;2022-12-07T11:40:49;7.10;99.90
13326;DHT22;6732;51.044;3.746;2022-12-07T11:43:23;7.10;99.90
13326;DHT22;6732;51.044;3.746;2022-12-07T11:45:59;7.10;99.90
13326;DHT22;6732;51.044;3.746;2022-12-07T11:48:46;7.10;99.90
13326;DHT22;6732;51.044;3.746;2022-12-07T11:51:15;7.10;99.90
13326;DHT22;6732;51.044;3.746;2022-12-07T11:53:59;7.10;99.90
13326;DHT22;6732;51.044;3.746;2022-12-07T11:56:29;7.10;99.90
13326;DHT22;6732;51.044;3.746;2022-12-07T11:59:19;7.20;99.90
13326;DHT22;6732;51.044;3.746;2022-12-07T12:05:02;7.20;99.90
13326;DHT22;6732;51.044;3.746;2022-12-07T12:07:31;7.30;99.90
13326;DHT22;6732;51.044;3.746;2022-12-07T12:10:02;7.30;99.90
13326;DHT22;6732;51.044;3.746;2022-12-07T12:21:16;7.30;99.90
13326;DHT22;6732;51.044;3.746;2022-12-07T12:23:51;7.40;99.90
13326;DHT22;6732;51.044;3.746;2022-12-07T12:26:23;7.40;99.90
13326;DHT22;6732;51.044;3.746;2022-12-07T12:33:54;7.40;99.90
13326;DHT22;6732;51.044;3.746;2022-12-07T12:46:58;7.40;99.90
13326;DHT22;6732;51.044;3.746;2022-12-07T12:52:00;7.50;99.90
13326;DHT22;6732;51.044;3.746;2022-12-07T12:54:31;7.50;99.90
13326;DHT22;6732;51.044;3.746;2022-12-07T12:57:05;7.50;99.90
13326;DHT22;6732;51.044;3.746;2022-12-07T12:59:38;7.50;99.90
13326;DHT22;6732;51.044;3.746;2022-12-07T13:02:26;7.50;99.90
13326;DHT22;6732;51.044;3.746;2022-12-07T13:15:44;7.60;99.90
13326;DHT22;6732;51.044;3.746;2022-12-07T13:20:49;7.60;99.90
13326;DHT22;6732;51.044;3.746;2022-12-07T13:23:23;7.60;99.90
13326;DHT22;6732;51.044;3.746;2022-12-07T13:26:12;7.60;99.90
13326;DHT22;6732;51.044;3.746;2022-12-07T13:28:42;7.60;99.90
13326;DHT22;6732;51.044;3.746;2022-12-07T13:31:33;7.60;99.90
13326;DHT22;6732;51.044;3.746;2022-12-07T13:34:01;7.60;99.90
13326;DHT22;6732;51.044;3.746;2022-12-07T13:36:33;7.60;99.90
13326;DHT22;6732;51.044;3.746;2022-12-07T13:39:18;7.60;99.90
13326;DHT22;6732;51.044;3.746;2022-12-07T13:41:52;7.70;99.90
13326;DHT22;6732;51.044;3.746;2022-12-07T13:44:19;7.60;99.90
13326;DHT22;6732;51.044;3.746;2022-12-07T13:49:46;7.60;99.90
13326;DHT22;6732;51.044;3.746;2022-12-07T13:52:18;7.60;99.90
13326;DHT22;6732;51.044;3.746;2022-12-07T13:55:08;7.60;99.90
13326;DHT22;6732;51.044;3.746;2022-12-07T13:57:39;7.70;99.90
13326;DHT22;6732;51.044;3.746;2022-12-07T14:00:15;7.70;99.90
13326;DHT22;6732;51.044;3.746;2022-12-07T14:03:03;7.70;99.90
13326;DHT22;6732;51.044;3.746;2022-12-07T14:05:32;7.70;99.90
13326;DHT22;6732;51.044;3.746;2022-12-07T14:08:06;7.70;99.90
13326;DHT22;6732;51.044;3.746;2022-12-07T14:15:56;7.70;99.90
13326;DHT22;6732;51.044;3.746;2022-12-07T14:18:30;7.70;99.90
13326;DHT22;6732;51.044;3.746;2022-12-07T14:23:33;7.70;99.90
13326;DHT22;6732;51.044;3.746;2022-12-07T14:26:09;7.70;99.90
13326;DHT22;6732;51.044;3.746;2022-12-07T14:28:37;7.70;99.90
13326;DHT22;6732;51.044;3.746;2022-12-07T14:31:12;7.70;99.90
13326;DHT22;6732;51.044;3.746;2022-12-07T14:33:39;7.70;99.90
13326;DHT22;6732;51.044;3.746;2022-12-07T14:36:05;7.70;99.90
13326;DHT22;6732;51.044;3.746;2022-12-07T14:38:31;7.70;99.90
13326;DHT22;6732;51.044;3.746;2022-12-07T14:40:57;7.70;99.90
13326;DHT22;6732;51.044;3.746;2022-12-07T14:43:41;7.70;99.90
13326;DHT22;6732;51.044;3.746;2022-12-07T14:46:09;7.70;99.90
13326;DHT22;6732;51.044;3.746;2022-12-07T14:48:34;7.70;99.90
13326;DHT22;6732;51.044;3.746;2022-12-07T14:51:00;7.70;99.90
13326;DHT22;6732;51.044;3.746;2022-12-07T14:53:34;7.70;99.90
13326;DHT22;6732;51.044;3.746;2022-12-07T14:56:00;7.70;99.90
13326;DHT22;6732;51.044;3.746;2022-12-07T14:58:26;7.70;99.90
13326;DHT22;6732;51.044;3.746;2022-12-07T15:00:52;7.70;99.90
13326;DHT22;6732;51.044;3.746;2022-12-07T15:03:18;7.70;99.90
13326;DHT22;6732;51.044;3.746;2022-12-07T15:05:44;7.60;99.90
13326;DHT22;6732;51.044;3.746;2022-12-07T15:08:12;7.60;99.90
13326;DHT22;6732;51.044;3.746;2022-12-07T15:10:38;7.60;99.90
13326;DHT22;6732;51.044;3.746;2022-12-07T15:13:06;7.60;99.90
13326;DHT22;6732;51.044;3.746;2022-12-07T15:15:51;7.60;99.90
13326;DHT22;6732;51.044;3.746;2022-12-07T15:18:19;7.60;99.90
13326;DHT22;6732;51.044;3.746;2022-12-07T15:20:45;7.60;99.90
13326;DHT22;6732;51.044;3.746;2022-12-07T15:23:12;7.60;99.90
13326;DHT22;6732;51.044;3.746;2022-12-07T15:25:46;7.60;99.90
13326;DHT22;6732;51.044;3.746;2022-12-07T15:28:12;7.60;99.90
13326;DHT22;6732;51.044;3.746;2022-12-07T15:30:42;7.60;99.90
13326;DHT22;6732;51.044;3.746;2022-12-07T15:33:09;7.60;99.90
13326;DHT22;6732;51.044;3.746;2022-12-07T15:35:40;7.60;99.90
13326;DHT22;6732;51.044;3.746;2022-12-07T15:38:06;7.60;99.90
13326;DHT22;6732;51.044;3.746;2022-12-07T15:40:32;7.50;99.90
13326;DHT22;6732;51.044;3.746;2022-12-07T15:42:59;7.50;99.90
13326;DHT22;6732;51.044;3.746;2022-12-07T15:45:25;7.50;99.90
13326;DHT22;6732;51.044;3.746;2022-12-07T15:47:51;7.50;99.90
13326;DHT22;6732;51.044;3.746;2022-12-07T15:50:17;7.50;99.90
13326;DHT22;6732;51.044;3.746;2022-12-07T15:52:43;7.50;99.90
13326;DHT22;6732;51.044;3.746;2022-12-07T15:55:10;7.40;99.90
13326;DHT22;6732;51.044;3.746;2022-12-07T15:57:37;7.40;99.90
13326;DHT22;6732;51.044;3.746;2022-12-07T16:00:08;7.40;99.90
13326;DHT22;6732;51.044;3.746;2022-12-07T16:02:35;7.40;99.90
13326;DHT22;6732;51.044;3.746;2022-12-07T16:05:02;7.40;99.90
13326;DHT22;6732;51.044;3.746;2022-12-07T16:07:27;7.40;99.90
13326;DHT22;6732;51.044;3.746;2022-12-07T16:09:53;7.30;99.90
13326;DHT22;6732;51.044;3.746;2022-12-07T16:12:19;7.30;99.90
13326;DHT22;6732;51.044;3.746;2022-12-07T16:14:45;7.40;99.90
13326;DHT22;6732;51.044;3.746;2022-12-07T16:17:11;7.30;99.90
13326;DHT22;6732;51.044;3.746;2022-12-07T16:19:38;7.30;99.90
13326;DHT22;6732;51.044;3.746;2022-12-07T16:22:04;7.30;99.90
13326;DHT22;6732;51.044;3.746;2022-12-07T16:24:31;7.30;99.90
13326;DHT22;6732;51.044;3.746;2022-12-07T16:26:57;7.30;99.90
13326;DHT22;6732;51.044;3.746;2022-12-07T16:29:23;7.30;99.90
13326;DHT22;6732;51.044;3.746;2022-12-07T16:31:50;7.30;99.90
13326;DHT22;6732;51.044;3.746;2022-12-07T16:34:16;7.30;99.90
13326;DHT22;6732;51.044;3.746;2022-12-07T16:36:43;7.20;99.90
13326;DHT22;6732;51.044;3.746;2022-12-07T16:39:09;7.20;99.90
13326;DHT22;6732;51.044;3.746;2022-12-07T16:41:35;7.20;99.90
13326;DHT22;6732;51.044;3.746;2022-12-07T16:44:06;7.20;99.90
13326;DHT22;6732;51.044;3.746;2022-12-07T16:46:33;7.20;99.90
13326;DHT22;6732;51.044;3.746;2022-12-07T16:49:00;7.20;99.90
13326;DHT22;6732;51.044;3.746;2022-12-07T16:51:26;7.20;99.90
13326;DHT22;6732;51.044;3.746;2022-12-07T16:53:52;7.20;99.90
13326;DHT22;6732;51.044;3.746;2022-12-07T16:56:18;7.20;99.90
13326;DHT22;6732;51.044;3.746;2022-12-07T16:58:45;7.20;99.90
13326;DHT22;6732;51.044;3.746;2022-12-07T17:01:17;7.20;99.90
13326;DHT22;6732;51.044;3.746;2022-12-07T17:03:44;7.20;99.90
13326;DHT22;6732;51.044;3.746;2022-12-07T17:06:18;7.20;99.90
13326;DHT22;6732;51.044;3.746;2022-12-07T17:08:44;7.20;99.90
13326;DHT22;6732;51.044;3.746;2022-12-07T17:11:12;7.20;99.90
13326;DHT22;6732;51.044;3.746;2022-12-07T17:13:38;7.20;99.90
13326;DHT22;6732;51.044;3.746;2022-12-07T17:16:23;7.20;99.90
13326;DHT22;6732;51.044;3.746;2022-12-07T17:18:49;7.20;99.90
13326;DHT22;6732;51.044;3.746;2022-12-07T17:21:15;7.20;99.90
13326;DHT22;6732;51.044;3.746;2022-12-07T17:23:41;7.20;99.90
13326;DHT22;6732;51.044;3.746;2022-12-07T17:26:08;7.20;99.90
13326;DHT22;6732;51.044;3.746;2022-12-07T17:28:35;7.20;99.90
13326;DHT22;6732;51.044;3.746;2022-12-07T17:31:05;7.20;99.90
13326;DHT22;6732;51.044;3.746;2022-12-07T17:33:32;7.20;99.90
13326;DHT22;6732;51.044;3.746;2022-12-07T17:35:58;7.20;99.90
13326;DHT22;6732;51.044;3.746;2022-12-07T17:38:23;7.20;99.90
13326;DHT22;6732;51.044;3.746;2022-12-07T17:40:49;7.20;99.90
13326;DHT22;6732;51.044;3.746;2022-12-07T17:43:15;7.20;99.90
13326;DHT22;6732;51.044;3.746;2022-12-07T17:45:41;7.20;99.90
13326;DHT22;6732;51.044;3.746;2022-12-07T17:48:07;7.20;99.90
13326;DHT22;6732;51.044;3.746;2022-12-07T17:50:33;7.10;99.90
13326;DHT22;6732;51.044;3.746;2022-12-07T17:53:17;7.10;99.90
13326;DHT22;6732;51.044;3.746;2022-12-07T17:55:43;7.10;99.90
13326;DHT22;6732;51.044;3.746;2022-12-07T17:58:09;7.10;99.90
13326;DHT22;6732;51.044;3.746;2022-12-07T18:00:35;7.10;99.90
13326;DHT22;6732;51.044;3.746;2022-12-07T18:03:06;7.10;99.90
13326;DHT22;6732;51.044;3.746;2022-12-07T18:05:36;7.00;99.90
13326;DHT22;6732;51.044;3.746;2022-12-07T18:08:03;7.00;99.90
13326;DHT22;6732;51.044;3.746;2022-12-07T18:10:29;7.00;99.90
13326;DHT22;6732;51.044;3.746;2022-12-07T18:12:55;7.00;99.90
13326;DHT22;6732;51.044;3.746;2022-12-07T18:15:41;7.00;99.90
13326;DHT22;6732;51.044;3.746;2022-12-07T18:18:07;7.00;99.90
13326;DHT22;6732;51.044;3.746;2022-12-07T18:20:33;7.00;99.90
13326;DHT22;6732;51.044;3.746;2022-12-07T18:22:58;7.00;99.90